createdAt,value
2023-05-04T00:01:43.538Z,100.00
2023-05-04T00:06:46.243Z,100.00
2023-05-04T00:11:50.261Z,100.00
2023-05-04T00:16:53.209Z,100.00
2023-05-04T00:21:55.899Z,100.00
2023-05-04T00:26:59.945Z,100.00
2023-05-04T00:32:02.658Z,100.00
2023-05-04T00:37:06.325Z,100.00
2023-05-04T00:42:11.046Z,100.00
2023-05-04T00:47:13.968Z,100.00
2023-05-04T00:52:17.301Z,100.00
2023-05-04T00:57:21.630Z,100.00
2023-05-04T01:02:24.346Z,100.00
2023-05-04T01:07:30.832Z,100.00
2023-05-04T01:12:35.744Z,100.00
2023-05-04T01:17:38.630Z,100.00
2023-05-04T01:22:42.953Z,100.00
2023-05-04T01:27:48.399Z,100.00
2023-05-04T01:32:51.637Z,100.00
2023-05-04T01:37:55.933Z,100.00
2023-05-04T01:42:58.641Z,100.00
2023-05-04T01:48:01.642Z,100.00
2023-05-04T01:53:05.936Z,100.00
2023-05-04T01:58:08.654Z,100.00
2023-05-04T02:03:11.523Z,100.00
2023-05-04T02:08:15.688Z,100.00
2023-05-04T02:13:18.412Z,100.00
2023-05-04T02:18:21.235Z,100.00
2023-05-04T02:23:26.304Z,100.00
2023-05-04T02:28:29.013Z,100.00
2023-05-04T02:33:31.872Z,100.00
2023-05-04T02:38:36.052Z,100.00
2023-05-04T02:43:39.689Z,100.00
2023-05-04T02:48:42.398Z,100.00
2023-05-04T02:53:46.501Z,100.00
2023-05-04T02:58:49.200Z,100.00
2023-05-04T03:03:51.990Z,100.00
2023-05-04T03:08:56.455Z,100.00
2023-05-04T03:13:59.146Z,100.00
2023-05-04T03:19:01.874Z,100.00
2023-05-04T03:24:07.584Z,100.00
2023-05-04T03:29:10.694Z,100.00
2023-05-04T03:34:15.186Z,100.00
2023-05-04T03:39:19.376Z,100.00
2023-05-04T03:44:22.550Z,100.00
2023-05-04T03:49:25.357Z,100.00
2023-05-04T03:54:29.387Z,100.00
2023-05-04T03:59:32.125Z,100.00
2023-05-04T04:04:36.158Z,100.00
2023-05-04T04:09:40.337Z,100.00
2023-05-04T04:14:44.207Z,100.00
2023-05-04T04:19:46.883Z,100.00
2023-05-04T04:24:50.896Z,100.00
2023-05-04T04:29:53.606Z,100.00
2023-05-04T04:34:56.530Z,100.00
2023-05-04T04:40:01.455Z,100.00
2023-05-04T04:45:05.935Z,100.00
2023-05-04T04:50:09.634Z,100.00
2023-05-04T04:55:15.454Z,100.00
2023-05-04T05:00:19.344Z,100.00
2023-05-04T05:05:22.180Z,100.00
2023-05-04T05:10:26.213Z,100.00
2023-05-04T05:15:28.930Z,100.00
2023-05-04T05:20:31.661Z,100.00
2023-05-04T05:25:35.713Z,100.00
2023-05-04T05:30:38.423Z,100.00
2023-05-04T05:35:41.252Z,100.00
2023-05-04T05:40:45.303Z,100.00
2023-05-04T05:45:48.580Z,100.00
2023-05-04T05:50:51.281Z,100.00
2023-05-04T05:55:55.289Z,100.00
2023-05-04T06:00:57.982Z,100.00
2023-05-04T06:06:00.628Z,100.00
2023-05-04T06:11:04.677Z,100.00
2023-05-04T06:16:07.463Z,100.00
2023-05-04T06:21:10.269Z,100.00
2023-05-04T06:26:14.329Z,100.00
2023-05-04T06:31:17.187Z,100.00
2023-05-04T06:36:19.973Z,100.00
2023-05-04T06:41:24.002Z,100.00
2023-05-04T06:46:26.852Z,100.00
2023-05-04T06:51:29.557Z,100.00
2023-05-04T06:56:33.758Z,100.00
2023-05-04T07:01:36.795Z,100.00
2023-05-04T07:06:39.710Z,100.00
2023-05-04T07:11:43.854Z,100.00
2023-05-04T07:16:46.584Z,100.00
2023-05-04T07:21:49.383Z,100.00
2023-05-04T07:26:53.418Z,100.00
2023-05-04T07:31:56.244Z,100.00
2023-05-04T07:36:59.022Z,100.00
2023-05-04T07:42:03.558Z,100.00
2023-05-04T07:47:06.483Z,100.00
2023-05-04T07:52:09.177Z,100.00
2023-05-04T07:57:13.230Z,100.00
2023-05-04T08:02:15.990Z,100.00
2023-05-04T08:07:19.237Z,100.00
2023-05-04T08:12:23.952Z,100.00
2023-05-04T08:17:26.946Z,100.00
2023-05-04T08:22:29.872Z,100.00
2023-05-04T08:27:33.944Z,100.00
2023-05-04T08:32:36.888Z,100.00
2023-05-04T08:37:39.639Z,100.00
2023-05-04T08:42:44.261Z,100.00
2023-05-04T08:47:47.147Z,100.00
2023-05-04T08:52:50.344Z,100.00
2023-05-04T08:57:54.731Z,100.00
2023-05-04T09:02:59.649Z,100.00
2023-05-04T09:08:02.424Z,100.00
2023-05-04T09:13:06.550Z,100.00
2023-05-04T09:18:10.355Z,100.00
2023-05-04T09:23:14.171Z,100.00
2023-05-04T09:28:18.870Z,100.00
2023-05-04T09:33:27.187Z,100.00
2023-05-04T09:38:31.447Z,100.00
2023-05-04T09:43:40.158Z,100.00
2023-05-04T09:48:51.626Z,100.00
2023-05-04T09:53:54.855Z,100.00
2023-05-04T09:58:59.568Z,100.00
2023-05-04T10:04:04.002Z,100.00
2023-05-04T10:09:06.802Z,100.00
2023-05-04T10:14:10.885Z,100.00
2023-05-04T10:19:25.866Z,100.00
2023-05-04T10:25:02.342Z,100.00
2023-05-04T10:30:07.936Z,100.00
2023-05-04T10:35:11.816Z,100.00
2023-05-04T10:40:14.684Z,100.00
2023-05-04T10:45:18.832Z,100.00
2023-05-04T10:50:21.508Z,100.00
2023-05-04T10:55:25.955Z,100.00
2023-05-04T11:00:38.356Z,100.00
2023-05-04T11:05:42.209Z,100.00
2023-05-04T11:10:45.182Z,100.00
2023-05-04T11:15:51.964Z,97.23
2023-05-04T11:20:55.982Z,86.73
2023-05-04T11:25:58.974Z,84.76
2023-05-04T11:31:04.020Z,85.35
2023-05-04T11:36:07.512Z,84.13
2023-05-04T11:41:10.742Z,81.84
2023-05-04T11:46:16.427Z,79.45
2023-05-04T11:51:19.622Z,87.40
2023-05-04T11:56:22.707Z,92.89
2023-05-04T12:01:26.784Z,91.60
2023-05-04T12:06:33.752Z,93.06
2023-05-04T12:11:38.227Z,97.62
2023-05-04T12:16:43.045Z,85.62
2023-05-04T12:21:53.514Z,81.20
2023-05-04T12:26:56.228Z,79.79
2023-05-04T12:32:00.344Z,80.06
2023-05-04T12:37:03.071Z,77.56
2023-05-04T12:42:05.956Z,73.43
2023-05-04T12:47:10.236Z,77.22
2023-05-04T12:52:12.927Z,73.03
2023-05-04T12:57:15.683Z,71.93
2023-05-04T13:02:19.706Z,72.24
2023-05-04T13:07:22.420Z,69.66
2023-05-04T13:12:25.554Z,74.44
2023-05-04T13:17:30.794Z,73.23
2023-05-04T13:22:33.748Z,71.49
2023-05-04T13:27:36.465Z,70.46
2023-05-04T13:32:40.671Z,74.16
2023-05-04T13:37:43.413Z,71.13
2023-05-04T13:42:46.124Z,61.06
2023-05-04T13:47:50.364Z,61.37
2023-05-04T13:52:53.134Z,58.55
2023-05-04T13:57:55.773Z,61.07
2023-05-04T14:03:00.019Z,58.40
2023-05-04T14:08:02.866Z,57.70
2023-05-04T14:13:05.653Z,59.18
2023-05-04T14:18:09.752Z,57.49
2023-05-04T14:23:12.446Z,56.57
2023-05-04T14:28:15.405Z,57.20
2023-05-04T14:33:19.454Z,55.30
2023-05-04T14:38:22.133Z,55.30
2023-05-04T14:43:24.953Z,56.80
2023-05-04T14:48:29.097Z,57.20
2023-05-04T14:53:37.060Z,56.15
2023-05-04T14:58:41.392Z,54.55
2023-05-04T15:03:45.573Z,55.48
2023-05-04T15:08:48.453Z,56.57
2023-05-04T15:13:51.173Z,57.24
2023-05-04T15:18:55.248Z,56.49
2023-05-04T15:23:58.006Z,55.33
2023-05-04T15:29:00.742Z,55.03
2023-05-04T15:34:04.912Z,55.62
2023-05-04T15:39:08.294Z,56.60
2023-05-04T15:44:11.000Z,58.61
2023-05-04T15:49:15.112Z,58.50
2023-05-04T15:54:17.830Z,58.95
2023-05-04T15:59:20.541Z,59.22
2023-05-04T16:04:24.556Z,60.57
2023-05-04T16:09:28.020Z,59.78
2023-05-04T16:14:30.871Z,60.72
2023-05-04T16:19:34.999Z,61.31
2023-05-04T16:24:37.698Z,64.18
2023-05-04T16:29:40.386Z,64.86
2023-05-04T16:34:44.406Z,67.72
2023-05-04T16:39:47.105Z,68.40
2023-05-04T16:44:49.952Z,71.01
2023-05-04T16:49:53.989Z,69.64
2023-05-04T16:54:57.046Z,69.49
2023-05-04T17:00:00.000Z,69.89
2023-05-04T17:05:06.473Z,74.31
2023-05-04T17:10:11.246Z,75.78
2023-05-04T17:15:13.953Z,75.11
2023-05-04T17:20:18.191Z,76.88
2023-05-04T17:25:21.617Z,81.62
2023-05-04T17:30:24.410Z,82.88
2023-05-04T17:35:28.465Z,85.22
2023-05-04T17:40:31.161Z,87.95
2023-05-04T17:45:34.956Z,90.05
2023-05-04T17:50:40.030Z,92.36
2023-05-04T17:55:42.780Z,96.88
2023-05-04T18:00:45.481Z,95.00
2023-05-04T18:05:49.500Z,96.42
2023-05-04T18:10:52.161Z,100.00
2023-05-04T18:15:55.063Z,100.00
2023-05-04T18:21:00.710Z,100.00
2023-05-04T18:26:03.508Z,100.00
2023-05-04T18:31:06.738Z,100.00
2023-05-04T18:36:10.816Z,100.00
2023-05-04T18:41:13.484Z,100.00
2023-05-04T18:46:16.236Z,100.00
2023-05-04T18:51:20.309Z,100.00
2023-05-04T18:56:23.071Z,100.00
2023-05-04T19:01:27.675Z,100.00
2023-05-04T19:06:32.173Z,100.00
2023-05-04T19:11:34.860Z,100.00
2023-05-04T19:16:37.560Z,100.00
2023-05-04T19:21:42.707Z,100.00
2023-05-04T19:26:45.739Z,100.00
2023-05-04T19:31:48.632Z,100.00
2023-05-04T19:36:52.715Z,100.00
2023-05-04T19:41:55.360Z,100.00
2023-05-04T19:46:58.081Z,100.00
2023-05-04T19:52:02.161Z,100.00
2023-05-04T19:57:04.961Z,100.00
2023-05-04T20:02:08.748Z,100.00
2023-05-04T20:07:12.849Z,100.00
2023-05-04T20:12:15.531Z,100.00
2023-05-04T20:17:18.321Z,100.00
2023-05-04T20:22:22.374Z,100.00
2023-05-04T20:27:25.091Z,100.00
2023-05-04T20:32:28.867Z,100.00
2023-05-04T20:37:32.973Z,100.00
2023-05-04T20:42:35.916Z,100.00
2023-05-04T20:47:38.675Z,100.00
2023-05-04T20:52:42.688Z,100.00
2023-05-04T20:57:45.400Z,100.00
2023-05-04T21:02:48.406Z,100.00
2023-05-04T21:07:52.860Z,100.00
2023-05-04T21:12:56.906Z,100.00
2023-05-04T21:17:59.683Z,100.00
2023-05-04T21:23:03.754Z,100.00
2023-05-04T21:28:06.550Z,100.00
2023-05-04T21:33:09.259Z,100.00
2023-05-04T21:38:14.071Z,100.00
2023-05-04T21:43:16.767Z,100.00
2023-05-04T21:48:19.426Z,100.00
2023-05-04T21:53:23.446Z,100.00
2023-05-04T21:58:26.379Z,100.00
2023-05-04T22:03:29.465Z,100.00
2023-05-04T22:08:33.537Z,100.00
2023-05-04T22:13:36.226Z,100.00
2023-05-04T22:18:39.382Z,100.00
2023-05-04T22:23:43.412Z,100.00
2023-05-04T22:28:46.085Z,100.00
2023-05-04T22:33:48.767Z,100.00
2023-05-04T22:38:53.181Z,100.00
2023-05-04T22:43:55.957Z,100.00
2023-05-04T22:48:58.646Z,100.00
2023-05-04T22:54:02.668Z,100.00
2023-05-04T22:59:06.217Z,100.00
2023-05-04T23:04:08.950Z,100.00
2023-05-04T23:09:14.148Z,100.00
2023-05-04T23:14:16.814Z,100.00
2023-05-04T23:19:19.484Z,100.00
2023-05-04T23:24:23.567Z,100.00
2023-05-04T23:29:26.362Z,100.00
2023-05-04T23:34:29.084Z,100.00
2023-05-04T23:39:33.126Z,100.00
2023-05-04T23:44:35.806Z,100.00
2023-05-04T23:49:38.481Z,100.00
2023-05-04T23:54:42.537Z,100.00
2023-05-04T23:59:45.193Z,100.00
